sensor_id;sensor_type;location;lat;lon;timestamp;temperature;humidity
38428;DHT22;24211;49.980;19.776;2023-05-27T00:00:27;15.70;99.90
38428;DHT22;24211;49.980;19.776;2023-05-27T00:14:35;15.50;99.90
38428;DHT22;24211;49.980;19.776;2023-05-27T00:17:02;15.40;99.90
38428;DHT22;24211;49.980;19.776;2023-05-27T00:19:30;15.40;99.90
38428;DHT22;24211;49.980;19.776;2023-05-27T00:21:58;15.30;99.90
38428;DHT22;24211;49.980;19.776;2023-05-27T00:24:25;15.30;99.90
38428;DHT22;24211;49.980;19.776;2023-05-27T00:26:52;15.20;99.90
38428;DHT22;24211;49.980;19.776;2023-05-27T00:29:19;15.20;99.90
38428;DHT22;24211;49.980;19.776;2023-05-27T00:31:47;15.20;99.90
38428;DHT22;24211;49.980;19.776;2023-05-27T00:34:14;15.10;99.90
38428;DHT22;24211;49.980;19.776;2023-05-27T00:36:41;15.00;99.90
38428;DHT22;24211;49.980;19.776;2023-05-27T00:39:10;15.00;99.90
38428;DHT22;24211;49.980;19.776;2023-05-27T01:01:57;14.60;99.90
38428;DHT22;24211;49.980;19.776;2023-05-27T01:05:11;14.60;99.90
38428;DHT22;24211;49.980;19.776;2023-05-27T01:10:53;14.50;99.90
38428;DHT22;24211;49.980;19.776;2023-05-27T01:13:46;14.40;99.90
38428;DHT22;24211;49.980;19.776;2023-05-27T01:16:19;14.40;99.90
38428;DHT22;24211;49.980;19.776;2023-05-27T01:18:48;14.30;99.90
38428;DHT22;24211;49.980;19.776;2023-05-27T01:21:18;14.30;99.90
38428;DHT22;24211;49.980;19.776;2023-05-27T01:23:50;14.20;99.90
38428;DHT22;24211;49.980;19.776;2023-05-27T01:26:18;14.20;99.90
38428;DHT22;24211;49.980;19.776;2023-05-27T01:28:46;14.20;99.90
38428;DHT22;24211;49.980;19.776;2023-05-27T01:31:22;14.10;99.90
38428;DHT22;24211;49.980;19.776;2023-05-27T01:36:07;14.10;99.90
38428;DHT22;24211;49.980;19.776;2023-05-27T01:49:04;13.80;99.90
38428;DHT22;24211;49.980;19.776;2023-05-27T01:57:43;13.70;99.90
38428;DHT22;24211;49.980;19.776;2023-05-27T02:01:14;13.60;99.90
38428;DHT22;24211;49.980;19.776;2023-05-27T02:14:06;13.40;99.90
38428;DHT22;24211;49.980;19.776;2023-05-27T02:25:38;13.30;99.90
38428;DHT22;24211;49.980;19.776;2023-05-27T02:28:05;13.20;99.90
38428;DHT22;24211;49.980;19.776;2023-05-27T02:30:33;13.20;99.90
38428;DHT22;24211;49.980;19.776;2023-05-27T02:33:01;13.10;99.90
38428;DHT22;24211;49.980;19.776;2023-05-27T02:35:29;13.10;99.90
38428;DHT22;24211;49.980;19.776;2023-05-27T02:37:56;13.10;99.90
38428;DHT22;24211;49.980;19.776;2023-05-27T02:40:28;13.00;99.90
38428;DHT22;24211;49.980;19.776;2023-05-27T02:48:14;12.90;99.90
38428;DHT22;24211;49.980;19.776;2023-05-27T02:54:15;12.80;99.90
38428;DHT22;24211;49.980;19.776;2023-05-27T03:02:43;12.70;99.90
38428;DHT22;24211;49.980;19.776;2023-05-27T03:13:43;12.50;99.90
38428;DHT22;24211;49.980;19.776;2023-05-27T03:16:10;12.50;99.90
38428;DHT22;24211;49.980;19.776;2023-05-27T03:19:04;12.50;99.90
38428;DHT22;24211;49.980;19.776;2023-05-27T03:27:12;12.50;99.90
38428;DHT22;24211;49.980;19.776;2023-05-27T03:29:43;12.40;99.90
38428;DHT22;24211;49.980;19.776;2023-05-27T03:40:57;12.40;99.90
38428;DHT22;24211;49.980;19.776;2023-05-27T03:43:25;12.50;99.90
38428;DHT22;24211;49.980;19.776;2023-05-27T03:45:52;12.40;99.90
38428;DHT22;24211;49.980;19.776;2023-05-27T03:48:20;12.40;99.90
38428;DHT22;24211;49.980;19.776;2023-05-27T03:50:47;12.40;99.90
38428;DHT22;24211;49.980;19.776;2023-05-27T03:53:14;12.50;99.90
38428;DHT22;24211;49.980;19.776;2023-05-27T03:55:42;12.50;99.90
38428;DHT22;24211;49.980;19.776;2023-05-27T03:58:16;12.50;99.90
38428;DHT22;24211;49.980;19.776;2023-05-27T04:00:43;12.50;99.90
38428;DHT22;24211;49.980;19.776;2023-05-27T04:03:10;12.60;99.90
38428;DHT22;24211;49.980;19.776;2023-05-27T04:05:37;12.60;99.90
38428;DHT22;24211;49.980;19.776;2023-05-27T04:08:05;12.70;99.90
38428;DHT22;24211;49.980;19.776;2023-05-27T04:10:32;12.70;99.90
38428;DHT22;24211;49.980;19.776;2023-05-27T04:12:59;12.70;99.90
38428;DHT22;24211;49.980;19.776;2023-05-27T04:15:27;12.80;99.90
38428;DHT22;24211;49.980;19.776;2023-05-27T04:17:54;12.90;99.90
38428;DHT22;24211;49.980;19.776;2023-05-27T04:20:21;12.90;99.90
38428;DHT22;24211;49.980;19.776;2023-05-27T04:22:54;13.00;99.90
38428;DHT22;24211;49.980;19.776;2023-05-27T04:25:22;13.10;99.90
38428;DHT22;24211;49.980;19.776;2023-05-27T04:28:03;13.20;99.90
38428;DHT22;24211;49.980;19.776;2023-05-27T04:30:33;13.30;99.90
38428;DHT22;24211;49.980;19.776;2023-05-27T04:33:07;13.50;99.90
38428;DHT22;24211;49.980;19.776;2023-05-27T04:35:38;13.60;99.90
38428;DHT22;24211;49.980;19.776;2023-05-27T04:38:08;13.70;99.90
38428;DHT22;24211;49.980;19.776;2023-05-27T04:40:50;13.70;99.90
38428;DHT22;24211;49.980;19.776;2023-05-27T04:43:43;13.80;99.90
38428;DHT22;24211;49.980;19.776;2023-05-27T04:46:14;13.90;99.90
38428;DHT22;24211;49.980;19.776;2023-05-27T04:48:42;14.00;99.90
38428;DHT22;24211;49.980;19.776;2023-05-27T04:51:11;14.20;99.90
38428;DHT22;24211;49.980;19.776;2023-05-27T04:53:42;14.30;99.90
38428;DHT22;24211;49.980;19.776;2023-05-27T04:56:10;14.40;99.90
38428;DHT22;24211;49.980;19.776;2023-05-27T04:58:41;14.50;99.90
38428;DHT22;24211;49.980;19.776;2023-05-27T05:01:10;14.70;99.90
38428;DHT22;24211;49.980;19.776;2023-05-27T05:03:51;14.90;99.90
38428;DHT22;24211;49.980;19.776;2023-05-27T05:06:46;15.00;99.90
38428;DHT22;24211;49.980;19.776;2023-05-27T05:09:14;15.20;99.90
38428;DHT22;24211;49.980;19.776;2023-05-27T05:11:44;15.40;99.90
38428;DHT22;24211;49.980;19.776;2023-05-27T05:14:13;15.50;99.90
38428;DHT22;24211;49.980;19.776;2023-05-27T05:16:40;15.80;99.90
38428;DHT22;24211;49.980;19.776;2023-05-27T05:19:08;16.00;99.90
38428;DHT22;24211;49.980;19.776;2023-05-27T05:21:38;16.30;99.90
38428;DHT22;24211;49.980;19.776;2023-05-27T05:24:16;16.60;99.90
38428;DHT22;24211;49.980;19.776;2023-05-27T05:26:49;16.90;99.90
38428;DHT22;24211;49.980;19.776;2023-05-27T05:29:26;17.10;99.90
38428;DHT22;24211;49.980;19.776;2023-05-27T05:31:53;17.30;99.90
38428;DHT22;24211;49.980;19.776;2023-05-27T05:34:22;17.50;99.90
38428;DHT22;24211;49.980;19.776;2023-05-27T05:36:50;17.60;99.90
38428;DHT22;24211;49.980;19.776;2023-05-27T05:39:17;17.80;99.90
38428;DHT22;24211;49.980;19.776;2023-05-27T05:41:48;18.10;99.90
38428;DHT22;24211;49.980;19.776;2023-05-27T05:44:18;18.30;99.90
38428;DHT22;24211;49.980;19.776;2023-05-27T05:46:48;18.50;99.90
38428;DHT22;24211;49.980;19.776;2023-05-27T05:49:18;18.60;99.90
38428;DHT22;24211;49.980;19.776;2023-05-27T05:51:54;18.80;99.90
38428;DHT22;24211;49.980;19.776;2023-05-27T05:54:44;18.90;99.90
38428;DHT22;24211;49.980;19.776;2023-05-27T05:57:12;19.10;99.90
38428;DHT22;24211;49.980;19.776;2023-05-27T05:59:39;19.20;99.90
38428;DHT22;24211;49.980;19.776;2023-05-27T06:02:07;19.50;99.90
38428;DHT22;24211;49.980;19.776;2023-05-27T06:04:34;19.70;99.90
38428;DHT22;24211;49.980;19.776;2023-05-27T06:07:01;19.70;99.90
38428;DHT22;24211;49.980;19.776;2023-05-27T06:10:11;19.80;99.90
38428;DHT22;24211;49.980;19.776;2023-05-27T06:12:42;19.90;99.90
38428;DHT22;24211;49.980;19.776;2023-05-27T06:15:09;20.00;99.90
38428;DHT22;24211;49.980;19.776;2023-05-27T06:17:41;20.20;99.90
38428;DHT22;24211;49.980;19.776;2023-05-27T06:20:10;20.40;99.90
38428;DHT22;24211;49.980;19.776;2023-05-27T06:22:37;20.60;99.90
38428;DHT22;24211;49.980;19.776;2023-05-27T06:25:23;20.80;99.90
38428;DHT22;24211;49.980;19.776;2023-05-27T06:27:57;21.00;99.90
38428;DHT22;24211;49.980;19.776;2023-05-27T06:30:25;21.20;99.90
38428;DHT22;24211;49.980;19.776;2023-05-27T06:32:54;21.20;99.90
38428;DHT22;24211;49.980;19.776;2023-05-27T06:35:22;21.30;99.90
38428;DHT22;24211;49.980;19.776;2023-05-27T06:37:50;21.50;99.90
38428;DHT22;24211;49.980;19.776;2023-05-27T06:40:18;21.60;99.90
38428;DHT22;24211;49.980;19.776;2023-05-27T06:42:47;21.70;99.90
38428;DHT22;24211;49.980;19.776;2023-05-27T06:45:25;21.80;99.90
38428;DHT22;24211;49.980;19.776;2023-05-27T06:48:03;22.00;99.90
38428;DHT22;24211;49.980;19.776;2023-05-27T06:50:33;22.20;99.90
38428;DHT22;24211;49.980;19.776;2023-05-27T06:53:01;22.50;99.90
38428;DHT22;24211;49.980;19.776;2023-05-27T06:55:35;22.60;99.90
38428;DHT22;24211;49.980;19.776;2023-05-27T06:58:22;22.60;99.90
38428;DHT22;24211;49.980;19.776;2023-05-27T07:00:54;22.70;99.90
38428;DHT22;24211;49.980;19.776;2023-05-27T07:03:28;22.90;99.90
38428;DHT22;24211;49.980;19.776;2023-05-27T07:05:55;23.20;99.90
38428;DHT22;24211;49.980;19.776;2023-05-27T07:08:25;23.30;99.90
38428;DHT22;24211;49.980;19.776;2023-05-27T07:11:05;23.50;99.90
38428;DHT22;24211;49.980;19.776;2023-05-27T07:13:32;23.60;99.90
38428;DHT22;24211;49.980;19.776;2023-05-27T07:15:59;24.00;99.90
38428;DHT22;24211;49.980;19.776;2023-05-27T07:18:28;24.20;99.90
38428;DHT22;24211;49.980;19.776;2023-05-27T07:20:58;24.20;99.90
38428;DHT22;24211;49.980;19.776;2023-05-27T07:23:25;24.20;99.90
38428;DHT22;24211;49.980;19.776;2023-05-27T07:26:11;24.30;99.90
38428;DHT22;24211;49.980;19.776;2023-05-27T07:28:39;24.40;99.90
38428;DHT22;24211;49.980;19.776;2023-05-27T07:31:16;24.20;99.90
38428;DHT22;24211;49.980;19.776;2023-05-27T07:33:49;24.20;99.90
38428;DHT22;24211;49.980;19.776;2023-05-27T07:36:19;24.30;99.90
38428;DHT22;24211;49.980;19.776;2023-05-27T07:38:47;24.60;99.40
38428;DHT22;24211;49.980;19.776;2023-05-27T07:41:14;24.90;98.80
38428;DHT22;24211;49.980;19.776;2023-05-27T07:46:10;25.20;96.10
38428;DHT22;24211;49.980;19.776;2023-05-27T07:48:40;25.30;96.30
38428;DHT22;24211;49.980;19.776;2023-05-27T07:51:08;25.60;97.00
38428;DHT22;24211;49.980;19.776;2023-05-27T07:53:36;25.90;97.20
38428;DHT22;24211;49.980;19.776;2023-05-27T07:56:03;25.80;97.70
38428;DHT22;24211;49.980;19.776;2023-05-27T07:58:31;25.80;97.40
38428;DHT22;24211;49.980;19.776;2023-05-27T08:11:10;25.60;97.20
38428;DHT22;24211;49.980;19.776;2023-05-27T08:13:56;26.00;95.00
38428;DHT22;24211;49.980;19.776;2023-05-27T08:16:42;26.60;98.70
38428;DHT22;24211;49.980;19.776;2023-05-27T08:19:30;26.60;95.60
38428;DHT22;24211;49.980;19.776;2023-05-27T08:22:21;26.70;94.80
38428;DHT22;24211;49.980;19.776;2023-05-27T08:25:07;27.00;95.00
38428;DHT22;24211;49.980;19.776;2023-05-27T08:27:49;27.20;95.60
38428;DHT22;24211;49.980;19.776;2023-05-27T08:30:38;27.30;95.70
38428;DHT22;24211;49.980;19.776;2023-05-27T08:33:18;27.50;95.70
38428;DHT22;24211;49.980;19.776;2023-05-27T08:35:56;28.10;95.00
38428;DHT22;24211;49.980;19.776;2023-05-27T08:40:58;28.70;93.80
38428;DHT22;24211;49.980;19.776;2023-05-27T08:43:29;28.50;92.80
38428;DHT22;24211;49.980;19.776;2023-05-27T08:45:56;28.70;92.90
38428;DHT22;24211;49.980;19.776;2023-05-27T08:48:24;28.80;93.10
38428;DHT22;24211;49.980;19.776;2023-05-27T08:50:51;28.80;92.60
38428;DHT22;24211;49.980;19.776;2023-05-27T08:53:19;28.50;92.90
38428;DHT22;24211;49.980;19.776;2023-05-27T08:55:51;27.90;92.30
38428;DHT22;24211;49.980;19.776;2023-05-27T09:00:54;28.00;97.10
38428;DHT22;24211;49.980;19.776;2023-05-27T09:03:24;28.20;95.40
38428;DHT22;24211;49.980;19.776;2023-05-27T09:05:54;27.70;92.80
38428;DHT22;24211;49.980;19.776;2023-05-27T09:11:16;28.40;91.00
38428;DHT22;24211;49.980;19.776;2023-05-27T09:13:46;28.50;91.40
38428;DHT22;24211;49.980;19.776;2023-05-27T09:16:14;28.60;90.80
38428;DHT22;24211;49.980;19.776;2023-05-27T09:18:47;28.70;91.30
38428;DHT22;24211;49.980;19.776;2023-05-27T09:21:15;28.70;91.00
38428;DHT22;24211;49.980;19.776;2023-05-27T09:23:43;28.60;90.50
38428;DHT22;24211;49.980;19.776;2023-05-27T09:26:11;28.60;90.40
38428;DHT22;24211;49.980;19.776;2023-05-27T09:28:39;28.80;90.30
38428;DHT22;24211;49.980;19.776;2023-05-27T09:31:08;29.00;90.50
38428;DHT22;24211;49.980;19.776;2023-05-27T09:33:38;28.80;94.20
38428;DHT22;24211;49.980;19.776;2023-05-27T09:36:07;29.50;90.50
38428;DHT22;24211;49.980;19.776;2023-05-27T09:38:36;29.20;95.20
38428;DHT22;24211;49.980;19.776;2023-05-27T09:46:03;29.10;89.50
38428;DHT22;24211;49.980;19.776;2023-05-27T09:48:38;29.80;95.30
38428;DHT22;24211;49.980;19.776;2023-05-27T09:53:35;29.40;89.10
38428;DHT22;24211;49.980;19.776;2023-05-27T09:56:04;29.50;90.40
38428;DHT22;24211;49.980;19.776;2023-05-27T09:58:31;29.60;89.50
38428;DHT22;24211;49.980;19.776;2023-05-27T10:00:59;29.60;89.70
38428;DHT22;24211;49.980;19.776;2023-05-27T10:03:29;29.40;88.70
38428;DHT22;24211;49.980;19.776;2023-05-27T10:05:57;29.50;88.20
38428;DHT22;24211;49.980;19.776;2023-05-27T10:08:28;29.50;89.30
38428;DHT22;24211;49.980;19.776;2023-05-27T10:10:55;29.60;90.40
38428;DHT22;24211;49.980;19.776;2023-05-27T10:13:24;29.80;90.10
38428;DHT22;24211;49.980;19.776;2023-05-27T10:15:52;30.20;89.70
38428;DHT22;24211;49.980;19.776;2023-05-27T10:18:27;30.30;89.80
38428;DHT22;24211;49.980;19.776;2023-05-27T10:20:58;30.30;90.20
38428;DHT22;24211;49.980;19.776;2023-05-27T10:23:30;30.20;89.90
38428;DHT22;24211;49.980;19.776;2023-05-27T10:26:05;30.10;89.90
38428;DHT22;24211;49.980;19.776;2023-05-27T10:28:36;29.70;85.70
38428;DHT22;24211;49.980;19.776;2023-05-27T10:31:16;30.30;87.80
38428;DHT22;24211;49.980;19.776;2023-05-27T10:33:47;30.60;88.10
38428;DHT22;24211;49.980;19.776;2023-05-27T10:36:25;30.50;88.40
38428;DHT22;24211;49.980;19.776;2023-05-27T10:38:58;30.20;88.40
38428;DHT22;24211;49.980;19.776;2023-05-27T10:44:08;29.40;84.90
38428;DHT22;24211;49.980;19.776;2023-05-27T10:46:41;28.90;85.30
38428;DHT22;24211;49.980;19.776;2023-05-27T10:49:14;29.60;85.80
38428;DHT22;24211;49.980;19.776;2023-05-27T10:51:43;29.70;85.70
38428;DHT22;24211;49.980;19.776;2023-05-27T10:54:11;29.70;86.10
38428;DHT22;24211;49.980;19.776;2023-05-27T10:56:52;29.60;85.60
38428;DHT22;24211;49.980;19.776;2023-05-27T10:59:21;29.60;85.20
38428;DHT22;24211;49.980;19.776;2023-05-27T11:01:52;29.60;84.20
38428;DHT22;24211;49.980;19.776;2023-05-27T11:04:22;29.70;84.30
38428;DHT22;24211;49.980;19.776;2023-05-27T11:06:59;29.90;84.80
38428;DHT22;24211;49.980;19.776;2023-05-27T11:12:17;29.90;83.90
38428;DHT22;24211;49.980;19.776;2023-05-27T11:14:50;29.80;83.80
38428;DHT22;24211;49.980;19.776;2023-05-27T11:17:22;29.60;76.60
38428;DHT22;24211;49.980;19.776;2023-05-27T11:23:08;29.90;82.90
38428;DHT22;24211;49.980;19.776;2023-05-27T11:25:45;30.10;82.40
38428;DHT22;24211;49.980;19.776;2023-05-27T11:28:16;29.60;76.40
38428;DHT22;24211;49.980;19.776;2023-05-27T11:30:44;29.80;79.90
38428;DHT22;24211;49.980;19.776;2023-05-27T11:33:13;30.20;80.90
38428;DHT22;24211;49.980;19.776;2023-05-27T11:36:11;30.10;80.10
38428;DHT22;24211;49.980;19.776;2023-05-27T11:38:48;30.10;80.80
38428;DHT22;24211;49.980;19.776;2023-05-27T11:41:27;29.90;79.70
38428;DHT22;24211;49.980;19.776;2023-05-27T11:44:06;30.10;80.00
38428;DHT22;24211;49.980;19.776;2023-05-27T11:46:41;30.20;80.50
38428;DHT22;24211;49.980;19.776;2023-05-27T11:49:13;30.30;80.50
38428;DHT22;24211;49.980;19.776;2023-05-27T11:51:44;30.60;79.70
38428;DHT22;24211;49.980;19.776;2023-05-27T11:54:20;30.60;79.00
38428;DHT22;24211;49.980;19.776;2023-05-27T11:56:51;31.00;77.80
38428;DHT22;24211;49.980;19.776;2023-05-27T11:59:21;30.90;79.10
38428;DHT22;24211;49.980;19.776;2023-05-27T12:01:51;30.90;78.80
38428;DHT22;24211;49.980;19.776;2023-05-27T12:04:20;30.60;77.40
38428;DHT22;24211;49.980;19.776;2023-05-27T12:06:48;30.50;77.80
38428;DHT22;24211;49.980;19.776;2023-05-27T12:09:15;30.60;76.70
38428;DHT22;24211;49.980;19.776;2023-05-27T12:11:42;30.20;75.60
38428;DHT22;24211;49.980;19.776;2023-05-27T12:14:09;30.20;76.30
38428;DHT22;24211;49.980;19.776;2023-05-27T12:16:37;30.20;76.60
38428;DHT22;24211;49.980;19.776;2023-05-27T12:19:04;30.60;76.60
38428;DHT22;24211;49.980;19.776;2023-05-27T12:21:31;30.70;76.60
38428;DHT22;24211;49.980;19.776;2023-05-27T12:23:59;30.80;77.10
38428;DHT22;24211;49.980;19.776;2023-05-27T12:26:27;30.90;76.60
38428;DHT22;24211;49.980;19.776;2023-05-27T12:28:55;30.70;76.20
38428;DHT22;24211;49.980;19.776;2023-05-27T12:31:23;30.50;76.30
38428;DHT22;24211;49.980;19.776;2023-05-27T12:33:51;30.50;76.50
38428;DHT22;24211;49.980;19.776;2023-05-27T12:36:18;30.70;76.50
38428;DHT22;24211;49.980;19.776;2023-05-27T12:38:46;30.70;75.50
38428;DHT22;24211;49.980;19.776;2023-05-27T12:41:13;30.40;74.70
38428;DHT22;24211;49.980;19.776;2023-05-27T12:43:40;30.80;76.20
38428;DHT22;24211;49.980;19.776;2023-05-27T12:46:07;30.70;75.00
38428;DHT22;24211;49.980;19.776;2023-05-27T12:48:34;30.50;75.00
38428;DHT22;24211;49.980;19.776;2023-05-27T12:51:02;30.40;75.70
38428;DHT22;24211;49.980;19.776;2023-05-27T12:53:32;30.80;75.80
38428;DHT22;24211;49.980;19.776;2023-05-27T12:55:59;31.30;75.30
38428;DHT22;24211;49.980;19.776;2023-05-27T12:58:27;30.40;74.60
38428;DHT22;24211;49.980;19.776;2023-05-27T13:00:55;30.40;74.80
38428;DHT22;24211;49.980;19.776;2023-05-27T13:03:47;29.60;69.10
38428;DHT22;24211;49.980;19.776;2023-05-27T13:06:15;28.50;66.70
38428;DHT22;24211;49.980;19.776;2023-05-27T13:08:42;29.30;74.80
38428;DHT22;24211;49.980;19.776;2023-05-27T13:11:10;29.80;73.50
38428;DHT22;24211;49.980;19.776;2023-05-27T13:13:37;29.70;73.70
38428;DHT22;24211;49.980;19.776;2023-05-27T13:16:05;29.90;74.20
38428;DHT22;24211;49.980;19.776;2023-05-27T13:18:32;30.20;74.80
38428;DHT22;24211;49.980;19.776;2023-05-27T13:20:59;30.30;73.30
38428;DHT22;24211;49.980;19.776;2023-05-27T13:23:28;30.10;73.20
38428;DHT22;24211;49.980;19.776;2023-05-27T13:25:56;29.40;72.90
38428;DHT22;24211;49.980;19.776;2023-05-27T13:28:23;29.00;72.50
38428;DHT22;24211;49.980;19.776;2023-05-27T13:30:51;29.40;72.00
38428;DHT22;24211;49.980;19.776;2023-05-27T13:33:18;29.40;71.30
38428;DHT22;24211;49.980;19.776;2023-05-27T13:35:46;29.40;71.40
38428;DHT22;24211;49.980;19.776;2023-05-27T13:38:13;29.80;73.10
38428;DHT22;24211;49.980;19.776;2023-05-27T13:40:41;30.30;73.30
38428;DHT22;24211;49.980;19.776;2023-05-27T13:43:08;30.20;71.80
38428;DHT22;24211;49.980;19.776;2023-05-27T13:45:36;29.90;72.80
38428;DHT22;24211;49.980;19.776;2023-05-27T13:48:03;30.30;72.40
38428;DHT22;24211;49.980;19.776;2023-05-27T13:50:31;30.20;72.40
38428;DHT22;24211;49.980;19.776;2023-05-27T13:52:58;29.70;72.30
38428;DHT22;24211;49.980;19.776;2023-05-27T13:55:30;29.90;73.20
38428;DHT22;24211;49.980;19.776;2023-05-27T13:57:57;30.10;71.40
38428;DHT22;24211;49.980;19.776;2023-05-27T14:00:25;29.80;72.30
38428;DHT22;24211;49.980;19.776;2023-05-27T14:02:52;28.80;63.60
38428;DHT22;24211;49.980;19.776;2023-05-27T14:05:21;28.30;70.80
38428;DHT22;24211;49.980;19.776;2023-05-27T14:07:48;28.10;72.40
38428;DHT22;24211;49.980;19.776;2023-05-27T14:10:15;28.70;72.50
38428;DHT22;24211;49.980;19.776;2023-05-27T14:12:42;28.90;72.30
38428;DHT22;24211;49.980;19.776;2023-05-27T14:15:11;27.60;72.20
38428;DHT22;24211;49.980;19.776;2023-05-27T14:17:38;27.20;72.20
38428;DHT22;24211;49.980;19.776;2023-05-27T14:20:06;27.70;69.00
38428;DHT22;24211;49.980;19.776;2023-05-27T14:22:38;28.40;73.50
38428;DHT22;24211;49.980;19.776;2023-05-27T14:25:07;29.10;72.80
38428;DHT22;24211;49.980;19.776;2023-05-27T14:27:34;29.10;72.20
38428;DHT22;24211;49.980;19.776;2023-05-27T14:30:02;29.60;72.70
38428;DHT22;24211;49.980;19.776;2023-05-27T14:32:29;29.90;72.60
38428;DHT22;24211;49.980;19.776;2023-05-27T14:34:56;30.10;72.00
38428;DHT22;24211;49.980;19.776;2023-05-27T14:37:23;30.00;72.10
38428;DHT22;24211;49.980;19.776;2023-05-27T14:39:51;30.10;71.70
38428;DHT22;24211;49.980;19.776;2023-05-27T14:42:20;30.20;71.20
38428;DHT22;24211;49.980;19.776;2023-05-27T14:44:47;29.80;71.30
38428;DHT22;24211;49.980;19.776;2023-05-27T14:47:14;29.30;70.40
38428;DHT22;24211;49.980;19.776;2023-05-27T14:49:43;29.10;72.10
38428;DHT22;24211;49.980;19.776;2023-05-27T14:52:10;29.00;72.10
38428;DHT22;24211;49.980;19.776;2023-05-27T14:54:37;28.80;72.20
38428;DHT22;24211;49.980;19.776;2023-05-27T14:57:05;28.40;72.50
38428;DHT22;24211;49.980;19.776;2023-05-27T14:59:32;28.70;72.60
38428;DHT22;24211;49.980;19.776;2023-05-27T15:02:00;28.80;72.80
38428;DHT22;24211;49.980;19.776;2023-05-27T15:04:28;29.00;73.00
38428;DHT22;24211;49.980;19.776;2023-05-27T15:06:55;28.80;72.50
38428;DHT22;24211;49.980;19.776;2023-05-27T15:09:23;28.50;72.30
38428;DHT22;24211;49.980;19.776;2023-05-27T15:11:50;28.60;73.30
38428;DHT22;24211;49.980;19.776;2023-05-27T15:14:17;28.30;68.90
38428;DHT22;24211;49.980;19.776;2023-05-27T15:16:44;28.20;72.80
38428;DHT22;24211;49.980;19.776;2023-05-27T15:19:12;28.20;73.00
38428;DHT22;24211;49.980;19.776;2023-05-27T15:25:30;28.30;73.20
38428;DHT22;24211;49.980;19.776;2023-05-27T15:28:04;28.60;73.10
38428;DHT22;24211;49.980;19.776;2023-05-27T15:30:33;28.60;73.00
38428;DHT22;24211;49.980;19.776;2023-05-27T15:33:09;28.20;72.70
38428;DHT22;24211;49.980;19.776;2023-05-27T15:35:37;28.10;73.20
38428;DHT22;24211;49.980;19.776;2023-05-27T15:38:04;28.40;73.60
38428;DHT22;24211;49.980;19.776;2023-05-27T15:40:32;28.50;73.30
38428;DHT22;24211;49.980;19.776;2023-05-27T15:42:59;28.40;73.60
38428;DHT22;24211;49.980;19.776;2023-05-27T15:45:29;28.50;74.50
38428;DHT22;24211;49.980;19.776;2023-05-27T15:47:56;28.60;74.40
38428;DHT22;24211;49.980;19.776;2023-05-27T15:50:23;28.60;74.20
38428;DHT22;24211;49.980;19.776;2023-05-27T15:52:50;28.40;73.60
38428;DHT22;24211;49.980;19.776;2023-05-27T15:55:18;28.20;73.80
38428;DHT22;24211;49.980;19.776;2023-05-27T15:57:45;27.90;73.50
38428;DHT22;24211;49.980;19.776;2023-05-27T16:00:13;27.60;73.30
38428;DHT22;24211;49.980;19.776;2023-05-27T16:02:41;27.40;73.20
38428;DHT22;24211;49.980;19.776;2023-05-27T16:05:09;27.40;73.70
38428;DHT22;24211;49.980;19.776;2023-05-27T16:07:40;27.50;74.10
38428;DHT22;24211;49.980;19.776;2023-05-27T16:10:10;27.60;74.10
38428;DHT22;24211;49.980;19.776;2023-05-27T16:12:38;27.70;74.20
38428;DHT22;24211;49.980;19.776;2023-05-27T16:15:05;27.70;74.40
38428;DHT22;24211;49.980;19.776;2023-05-27T16:17:34;27.80;74.50
38428;DHT22;24211;49.980;19.776;2023-05-27T16:20:01;27.60;74.40
38428;DHT22;24211;49.980;19.776;2023-05-27T16:22:30;27.50;74.30
38428;DHT22;24211;49.980;19.776;2023-05-27T16:24:58;27.50;75.10
38428;DHT22;24211;49.980;19.776;2023-05-27T16:27:25;27.70;74.80
38428;DHT22;24211;49.980;19.776;2023-05-27T16:29:52;27.50;74.30
38428;DHT22;24211;49.980;19.776;2023-05-27T16:32:20;27.20;74.10
38428;DHT22;24211;49.980;19.776;2023-05-27T16:34:47;26.90;74.30
38428;DHT22;24211;49.980;19.776;2023-05-27T16:37:14;26.80;74.70
38428;DHT22;24211;49.980;19.776;2023-05-27T16:39:42;26.80;74.80
38428;DHT22;24211;49.980;19.776;2023-05-27T16:42:09;26.90;74.90
38428;DHT22;24211;49.980;19.776;2023-05-27T16:44:36;26.70;75.40
38428;DHT22;24211;49.980;19.776;2023-05-27T16:47:03;26.80;75.40
38428;DHT22;24211;49.980;19.776;2023-05-27T16:49:31;26.80;75.40
38428;DHT22;24211;49.980;19.776;2023-05-27T16:51:58;26.90;75.80
38428;DHT22;24211;49.980;19.776;2023-05-27T16:54:27;26.90;75.90
38428;DHT22;24211;49.980;19.776;2023-05-27T16:56:54;27.00;76.30
38428;DHT22;24211;49.980;19.776;2023-05-27T16:59:21;27.00;76.10
38428;DHT22;24211;49.980;19.776;2023-05-27T17:01:48;26.90;76.00
38428;DHT22;24211;49.980;19.776;2023-05-27T17:04:16;26.70;76.10
38428;DHT22;24211;49.980;19.776;2023-05-27T17:06:43;26.70;76.50
38428;DHT22;24211;49.980;19.776;2023-05-27T17:09:11;26.60;76.70
38428;DHT22;24211;49.980;19.776;2023-05-27T17:11:38;26.60;76.70
38428;DHT22;24211;49.980;19.776;2023-05-27T17:14:06;26.70;77.10
38428;DHT22;24211;49.980;19.776;2023-05-27T17:16:33;26.70;77.20
38428;DHT22;24211;49.980;19.776;2023-05-27T17:19:00;26.70;77.40
38428;DHT22;24211;49.980;19.776;2023-05-27T17:21:27;26.70;77.60
38428;DHT22;24211;49.980;19.776;2023-05-27T17:23:55;26.70;77.80
38428;DHT22;24211;49.980;19.776;2023-05-27T17:26:22;26.70;78.00
38428;DHT22;24211;49.980;19.776;2023-05-27T17:28:50;26.60;78.00
38428;DHT22;24211;49.980;19.776;2023-05-27T17:31:17;26.50;78.20
38428;DHT22;24211;49.980;19.776;2023-05-27T17:33:45;26.50;78.30
38428;DHT22;24211;49.980;19.776;2023-05-27T17:36:12;26.40;78.50
38428;DHT22;24211;49.980;19.776;2023-05-27T17:38:39;26.40;78.50
38428;DHT22;24211;49.980;19.776;2023-05-27T17:41:07;26.30;78.70
38428;DHT22;24211;49.980;19.776;2023-05-27T17:43:37;26.30;78.80
38428;DHT22;24211;49.980;19.776;2023-05-27T17:46:04;26.10;78.90
38428;DHT22;24211;49.980;19.776;2023-05-27T17:48:32;26.00;79.10
38428;DHT22;24211;49.980;19.776;2023-05-27T17:50:59;25.90;79.30
38428;DHT22;24211;49.980;19.776;2023-05-27T17:53:27;25.70;79.30
38428;DHT22;24211;49.980;19.776;2023-05-27T17:55:54;25.60;79.60
38428;DHT22;24211;49.980;19.776;2023-05-27T17:58:22;25.50;79.80
38428;DHT22;24211;49.980;19.776;2023-05-27T18:00:49;25.40;80.10
38428;DHT22;24211;49.980;19.776;2023-05-27T18:03:17;25.20;80.20
38428;DHT22;24211;49.980;19.776;2023-05-27T18:05:45;25.10;80.40